LGRP Airport Information

Runway Information
Runway 07 Length 10846 ft width 148 ft
Elevation 16 ft Threshold 0 ft Heading 70
Runway 25 Length 10846 ft Width 148 ft
Elevation 17 ft Threshold 0 ft Heading 250
Airport Frequencies
Type A/G Name RDO Frequency 563.7 MHZ
Type APP Name RODOS APP Frequency 118.25 MHZ
Type ATIS Name ATIS Frequency 126.35 MHZ
Type GND Name GND Frequency 121.7 MHZ
Type TWR Name TWR Frequency 118.2 MHZ
Airport Navaids
Type VOR-DME Name Paradisi Frequency 108600 KHZ
Type VOR-DME Name Rodos Frequency 115800 KHZ
Type TACAN Name Rodos Frequency 117400 KHZ
Type NDB Name Rodos Frequency 339 KHZ
Airport Weather Information & NOTAM
ADDS - METARS form results

(1829 UTC 22 September 2018)
Data provider http://aviationweather.gov/metar/data/
 
METAR text: LGRP 221820Z 23010KT 9999 FEW018 25/21 Q1013 NOSIG
Conditions at: LGRP (RHODES/DIAGORAS , GR) observed 1820 UTC 22 September 2018
Temperature: 25.0°C (77°F)
Dewpoint: 21.0°C (70°F) [RH = 79%]
Pressure (altimeter): 29.91 inches Hg (1013.0 mb)
Winds: from the SW (230 degrees) at 12 MPH (10 knots; 5.1 m/s)
Visibility: 6 or more miles (10+ km)
Ceiling: at least 12,000 feet AGL
Clouds: few clouds at 1800 feet AGL
Weather: no significant weather observed at this time

METAR text: LGRP 221750Z 23010KT 9999 FEW018 25/21 Q1014 NOSIG
Conditions at: LGRP (RHODES/DIAGORAS , GR) observed 1750 UTC 22 September 2018
Temperature: 25.0°C (77°F)
Dewpoint: 21.0°C (70°F) [RH = 79%]
Pressure (altimeter): 29.94 inches Hg (1014.0 mb)
Winds: from the SW (230 degrees) at 12 MPH (10 knots; 5.1 m/s)
Visibility: 6 or more miles (10+ km)
Ceiling: at least 12,000 feet AGL
Clouds: few clouds at 1800 feet AGL
Weather: no significant weather observed at this time

Forecast for: LGRP (RHODES/DIAGORAS , GR)
Text: TAF LGRP 221700Z 2218/2318 26015KT 9999 FEW018
Forecast period: 1800 UTC 22 September 2018 to 1800 UTC 23 September 2018
Forecast type: FROM: standard forecast or significant change
Winds: from the W (260 degrees) at 17 MPH (15 knots; 7.7 m/s)
Visibility: 6 or more miles 10+ km)
Ceiling: at least 12,000 feet AGL
Clouds: few clouds at 1800 feet AGL
Weather: no significant weather forecast for this period